Time;durP1;ratioP1;P1;durP2;ratioP2;P2;SDS_P1;SDS_P2;PMS_P1;PMS_P2;Temp;Humidity;BMP_temperature;BMP_pressure;BME280_temperature;BME280_humidity;BME280_pressure;Samples;Min_cycle;Max_cycle;Signal;HPM_P1;HPM_P2
2023/04/23 00:00:53;;;;;;;19.30;16.57;;;18.80;36.10;;;;;;5034301;28;20166;-50
2023/04/23 00:03:22;;;;;;;17.52;15.73;;;18.80;36.20;;;;;;5033980;28;20419;-49
2023/04/23 00:05:51;;;;;;;19.02;17.05;;;18.80;36.10;;;;;;5034036;28;20185;-49
2023/04/23 00:08:21;;;;;;;19.45;17.02;;;18.80;35.90;;;;;;5033909;28;20204;-50
2023/04/23 00:10:47;;;;;;;23.58;18.08;;;18.80;36.10;;;;;;5034326;28;20257;-49
2023/04/23 00:13:13;;;;;;;23.33;17.73;;;18.80;35.90;;;;;;5033870;28;20241;-49
2023/04/23 00:15:39;;;;;;;17.13;15.50;;;18.80;36.00;;;;;;5033865;28;20202;-49
2023/04/23 00:18:05;;;;;;;17.70;15.85;;;18.80;36.10;;;;;;5034126;28;20405;-50
2023/04/23 00:20:31;;;;;;;20.53;16.03;;;18.80;36.50;;;;;;5033843;28;20527;-49
2023/04/23 00:22:57;;;;;;;19.27;17.30;;;18.80;36.10;;;;;;5033837;28;20182;-49
2023/04/23 00:25:22;;;;;;;18.87;16.83;;;18.80;36.30;;;;;;5034024;28;20916;-50
2023/04/23 00:27:48;;;;;;;19.60;17.50;;;18.80;36.20;;;;;;5033811;28;20193;-49
2023/04/23 00:30:15;;;;;;;18.50;16.20;;;18.70;36.60;;;;;;5033623;28;20202;-49
2023/04/23 00:32:41;;;;;;;22.75;17.67;;;18.70;36.30;;;;;;5033588;28;20178;-49
2023/04/23 00:35:07;;;;;;;20.05;17.25;;;18.70;36.50;;;;;;5033831;28;20198;-49
2023/04/23 00:37:33;;;;;;;19.63;17.50;;;18.60;36.20;;;;;;5033113;28;20170;-50
2023/04/23 00:39:59;;;;;;;21.67;17.27;;;18.60;36.60;;;;;;5033714;28;20801;-49
2023/04/23 00:42:25;;;;;;;22.10;17.43;;;18.50;36.50;;;;;;5033344;28;20172;-49
2023/04/23 00:44:51;;;;;;;21.63;15.30;;;18.60;36.40;;;;;;5033575;28;20173;-49
2023/04/23 00:47:19;;;;;;;18.97;16.97;;;18.60;36.40;;;;;;5033228;28;20542;-49
2023/04/23 00:49:45;;;;;;;24.23;16.23;;;18.50;36.70;;;;;;5033456;28;20432;-49
2023/04/23 00:52:11;;;;;;;22.65;14.90;;;18.50;36.50;;;;;;5033314;28;20201;-49
2023/04/23 00:54:37;;;;;;;19.00;16.00;;;18.60;36.50;;;;;;5033247;28;20233;-50
2023/04/23 00:57:03;;;;;;;17.20;15.40;;;18.50;36.70;;;;;;5033217;28;20170;-49
2023/04/23 00:59:30;;;;;;;20.60;15.83;;;18.50;36.60;;;;;;5033145;28;20178;-50
2023/04/23 01:01:56;;;;;;;16.38;14.48;;;18.50;36.60;;;;;;5032999;28;20429;-50
2023/04/23 01:04:26;;;;;;;17.38;14.70;;;18.50;36.50;;;;;;5032971;28;20178;-49
2023/04/23 01:06:53;;;;;;;15.10;13.55;;;18.50;36.50;;;;;;5033310;28;20182;-49
2023/04/23 01:09:19;;;;;;;14.52;13.00;;;18.40;36.40;;;;;;5032900;28;20678;-49
2023/04/23 01:11:47;;;;;;;15.95;13.13;;;18.40;36.50;;;;;;5033037;28;20182;-50
2023/04/23 01:14:13;;;;;;;14.82;13.35;;;18.40;36.40;;;;;;5032828;28;20189;-50
2023/04/23 01:16:39;;;;;;;15.30;13.70;;;18.40;36.70;;;;;;5032732;28;20204;-49
2023/04/23 01:19:06;;;;;;;16.60;14.32;;;18.30;37.10;;;;;;5032975;28;20431;-50
2023/04/23 01:21:34;;;;;;;16.42;14.73;;;18.30;37.00;;;;;;5014881;28;20546;-49
2023/04/23 01:24:01;;;;;;;16.88;14.90;;;18.20;36.80;;;;;;5032700;28;20543;-50
2023/04/23 01:26:27;;;;;;;14.70;13.05;;;18.20;37.20;;;;;;5032595;28;20642;-49
2023/04/23 01:28:53;;;;;;;14.97;13.63;;;18.20;37.20;;;;;;5032394;28;20204;-49
2023/04/23 01:31:19;;;;;;;15.75;12.35;;;18.10;37.20;;;;;;5032548;28;20535;-49
2023/04/23 01:33:45;;;;;;;15.38;13.20;;;18.10;37.30;;;;;;5032632;28;20236;-49
2023/04/23 01:36:11;;;;;;;15.20;13.73;;;18.10;37.50;;;;;;5032680;28;20256;-49
2023/04/23 01:38:38;;;;;;;15.13;12.70;;;18.00;37.70;;;;;;5032357;28;20593;-50
2023/04/23 01:41:04;;;;;;;15.45;12.68;;;17.90;37.70;;;;;;5032675;28;20491;-49
2023/04/23 01:43:31;;;;;;;15.00;13.40;;;17.90;37.40;;;;;;5032043;28;20177;-50
2023/04/23 01:45:57;;;;;;;14.98;13.43;;;17.90;37.30;;;;;;5032575;28;20181;-50
2023/04/23 01:48:24;;;;;;;14.05;12.38;;;17.90;37.60;;;;;;5032143;28;20241;-50
2023/04/23 01:50:50;;;;;;;16.00;14.50;;;17.80;37.60;;;;;;5032114;28;20188;-49
2023/04/23 01:53:16;;;;;;;14.38;12.50;;;17.70;37.90;;;;;;5031672;28;20182;-49
2023/04/23 01:55:45;;;;;;;13.77;12.40;;;17.70;37.80;;;;;;5031790;28;20249;-49
2023/04/23 01:58:11;;;;;;;13.52;12.07;;;17.60;37.90;;;;;;5032241;28;20216;-48
2023/04/23 02:00:37;;;;;;;21.05;13.00;;;17.60;38.30;;;;;;5032144;28;20173;-50
2023/04/23 02:03:03;;;;;;;19.60;12.47;;;17.50;37.90;;;;;;5032129;28;20174;-49
2023/04/23 02:05:29;;;;;;;14.73;13.30;;;17.40;37.90;;;;;;5032183;28;20188;-49
2023/04/23 02:07:55;;;;;;;20.33;12.53;;;17.50;37.90;;;;;;5032307;28;20491;-49
2023/04/23 02:10:21;;;;;;;13.75;12.05;;;17.40;38.20;;;;;;5032019;28;20436;-50
2023/04/23 02:12:47;;;;;;;16.70;12.30;;;17.40;38.40;;;;;;5031660;28;20178;-49
2023/04/23 02:15:15;;;;;;;13.87;11.50;;;17.40;38.30;;;;;;5032157;28;20554;-50
2023/04/23 02:17:41;;;;;;;12.60;11.40;;;17.40;38.40;;;;;;5032267;28;20840;-49
2023/04/23 02:20:11;;;;;;;13.33;11.93;;;17.40;38.20;;;;;;5031844;28;20220;-49
2023/04/23 02:22:40;;;;;;;13.07;11.52;;;17.30;38.40;;;;;;5031712;28;20241;-49
2023/04/23 02:25:07;;;;;;;14.68;11.00;;;17.30;38.70;;;;;;5031862;28;20259;-49
2023/04/23 02:27:33;;;;;;;15.82;11.50;;;17.30;38.40;;;;;;5032125;28;20316;-48
2023/04/23 02:29:59;;;;;;;14.68;11.38;;;17.30;38.60;;;;;;5031742;28;20208;-50
2023/04/23 02:32:25;;;;;;;16.00;11.37;;;17.40;38.60;;;;;;5031727;28;20191;-49
2023/04/23 02:34:51;;;;;;;13.30;11.23;;;17.40;38.90;;;;;;5031511;28;20281;-49
2023/04/23 02:37:17;;;;;;;14.98;12.10;;;17.40;39.00;;;;;;5031659;28;20409;-49
2023/04/23 02:39:42;;;;;;;13.87;12.43;;;17.40;38.70;;;;;;5031696;28;20197;-49
2023/04/23 02:42:08;;;;;;;13.60;12.10;;;17.40;39.10;;;;;;5031738;28;20166;-49
2023/04/23 02:44:34;;;;;;;14.47;12.30;;;17.40;38.90;;;;;;5031672;28;20590;-49
2023/04/23 02:47:00;;;;;;;16.97;14.90;;;17.40;38.50;;;;;;5031789;28;20257;-50
2023/04/23 02:49:26;;;;;;;13.93;11.20;;;17.40;38.40;;;;;;5031450;28;20210;-50
2023/04/23 02:51:51;;;;;;;13.77;12.00;;;17.40;38.70;;;;;;5031737;28;20693;-49
2023/04/23 02:54:18;;;;;;;13.43;11.45;;;17.40;38.80;;;;;;5031478;28;20437;-50
2023/04/23 02:56:44;;;;;;;13.87;11.90;;;17.40;39.00;;;;;;5031845;28;20174;-49
2023/04/23 02:59:10;;;;;;;12.03;10.70;;;17.40;39.00;;;;;;5031719;28;20196;-49
2023/04/23 03:01:36;;;;;;;13.07;11.30;;;17.40;39.20;;;;;;5033667;28;20404;-50
2023/04/23 03:04:02;;;;;;;12.07;10.97;;;17.30;39.40;;;;;;5035164;28;20216;-49
2023/04/23 03:06:30;;;;;;;13.35;11.50;;;17.30;39.20;;;;;;5035599;28;20178;-49
2023/04/23 03:08:56;;;;;;;11.85;10.68;;;17.30;39.30;;;;;;5035025;28;20578;-49
2023/04/23 03:11:22;;;;;;;11.50;10.30;;;17.20;39.30;;;;;;5035122;28;20177;-49
2023/04/23 03:13:48;;;;;;;13.20;11.80;;;17.20;39.40;;;;;;5035158;28;20195;-49
2023/04/23 03:16:14;;;;;;;11.20;10.10;;;17.10;39.40;;;;;;5035032;28;20518;-49
2023/04/23 03:18:39;;;;;;;10.73;9.80;;;17.10;39.40;;;;;;5035212;28;20537;-49
2023/04/23 03:21:05;;;;;;;13.10;10.27;;;17.10;39.50;;;;;;5035314;28;20416;-49
2023/04/23 03:23:31;;;;;;;11.87;10.73;;;17.10;39.40;;;;;;5034577;28;20409;-50
2023/04/23 03:25:57;;;;;;;11.97;10.73;;;17.10;39.50;;;;;;5034875;28;20186;-49
2023/04/23 03:28:23;;;;;;;11.70;10.70;;;17.10;39.80;;;;;;5035012;28;20177;-49
2023/04/23 03:30:49;;;;;;;11.00;9.87;;;17.10;40.80;;;;;;5035099;28;20170;-48
2023/04/23 03:33:14;;;;;;;14.40;11.85;;;17.20;39.70;;;;;;5034450;28;20479;-49
2023/04/23 03:35:40;;;;;;;15.53;11.63;;;17.10;39.90;;;;;;5034619;28;20209;-49
2023/04/23 03:38:06;;;;;;;14.90;10.67;;;17.10;40.20;;;;;;5034663;28;20412;-49
2023/04/23 03:40:32;;;;;;;14.80;10.90;;;17.10;40.00;;;;;;5034589;28;20185;-49
2023/04/23 03:42:58;;;;;;;15.23;10.20;;;17.10;40.10;;;;;;5034633;28;20219;-49
2023/04/23 03:45:24;;;;;;;12.07;9.93;;;17.20;40.20;;;;;;5034636;28;20205;-49
2023/04/23 03:47:50;;;;;;;12.93;10.00;;;17.20;40.30;;;;;;5034316;28;20483;-49
2023/04/23 03:50:16;;;;;;;11.13;10.00;;;17.30;40.30;;;;;;5034454;28;20205;-49
2023/04/23 03:52:42;;;;;;;11.43;10.30;;;17.30;40.50;;;;;;5034052;28;20185;-49
2023/04/23 03:55:08;;;;;;;13.05;11.23;;;17.30;40.20;;;;;;5034243;28;20747;-49
2023/04/23 03:57:35;;;;;;;12.50;11.07;;;17.30;40.30;;;;;;5034628;28;20189;-49
2023/04/23 04:00:02;;;;;;;9.82;8.85;;;17.30;40.50;;;;;;5034314;28;20204;-49
2023/04/23 04:02:28;;;;;;;14.70;10.90;;;17.30;40.50;;;;;;5034238;28;20205;-49
2023/04/23 04:04:55;;;;;;;11.00;9.87;;;17.30;40.50;;;;;;5034198;28;20554;-49
2023/04/23 04:07:21;;;;;;;13.07;9.02;;;17.30;40.10;;;;;;5033964;28;20178;-49
2023/04/23 04:09:48;;;;;;;12.30;10.17;;;17.40;39.70;;;;;;5033999;28;20214;-49
2023/04/23 04:12:15;;;;;;;12.35;9.00;;;17.50;39.60;;;;;;5032891;28;20428;-48
2023/04/23 04:14:41;;;;;;;9.80;8.13;;;17.60;39.40;;;;;;5034126;28;20205;-49
2023/04/23 04:17:07;;;;;;;8.07;7.38;;;17.60;39.40;;;;;;5034153;28;20166;-49
2023/04/23 04:19:33;;;;;;;9.25;8.35;;;17.70;39.00;;;;;;5033887;28;20194;-50
2023/04/23 04:22:01;;;;;;;8.40;7.50;;;17.80;38.70;;;;;;5033629;28;20248;-49
2023/04/23 04:24:27;;;;;;;10.55;8.55;;;17.90;38.90;;;;;;5034021;28;20416;-49
2023/04/23 04:26:53;;;;;;;12.55;9.35;;;17.90;39.10;;;;;;5034043;28;20240;-49
2023/04/23 04:29:20;;;;;;;10.60;8.50;;;17.90;39.40;;;;;;5033771;28;20189;-48
2023/04/23 04:31:47;;;;;;;17.77;10.20;;;17.90;40.10;;;;;;5033553;28;20409;-49
2023/04/23 04:34:13;;;;;;;12.07;8.02;;;17.80;40.40;;;;;;5033816;28;20602;-49
2023/04/23 04:36:40;;;;;;;12.25;9.70;;;17.80;40.80;;;;;;5033452;28;20202;-49
2023/04/23 04:39:06;;;;;;;10.57;8.30;;;17.80;40.90;;;;;;5033447;28;20563;-49
2023/04/23 04:41:32;;;;;;;9.40;8.40;;;17.80;41.00;;;;;;5033792;28;20189;-49
2023/04/23 04:43:58;;;;;;;9.20;8.30;;;17.80;41.00;;;;;;5033333;28;20178;-49
2023/04/23 04:46:30;;;;;;;10.57;9.47;;;17.80;41.00;;;;;;5033449;28;20904;-49
2023/04/23 04:48:56;;;;;;;11.07;9.15;;;17.90;41.70;;;;;;5033140;28;20459;-49
2023/04/23 04:51:22;;;;;;;9.90;8.83;;;17.90;41.50;;;;;;5033438;28;20186;-49
2023/04/23 04:53:47;;;;;;;10.87;9.90;;;17.90;41.50;;;;;;5033093;28;20169;-50
2023/04/23 04:56:13;;;;;;;8.87;7.97;;;17.90;41.70;;;;;;5033382;28;20549;-50
2023/04/23 04:58:39;;;;;;;13.20;9.37;;;18.00;42.00;;;;;;5033185;28;20194;-49
2023/04/23 05:01:05;;;;;;;13.53;9.23;;;17.90;42.10;;;;;;5033352;28;20177;-49
2023/04/23 05:03:31;;;;;;;10.57;9.55;;;18.00;42.20;;;;;;5032749;28;20177;-50
2023/04/23 05:06:00;;;;;;;10.50;9.40;;;18.00;42.10;;;;;;5033238;28;20665;-49
2023/04/23 05:08:25;;;;;;;11.32;10.00;;;18.10;42.40;;;;;;5032861;28;20431;-50
2023/04/23 05:10:53;;;;;;;14.70;10.60;;;18.10;42.90;;;;;;5033369;28;20186;-49
2023/04/23 05:13:18;;;;;;;11.30;10.25;;;18.20;42.80;;;;;;5032620;28;20700;-49
2023/04/23 05:15:47;;;;;;;11.30;10.30;;;18.20;42.60;;;;;;5032637;28;20205;-50
2023/04/23 05:18:13;;;;;;;11.90;10.70;;;18.40;42.80;;;;;;5032862;28;20403;-48
2023/04/23 05:20:39;;;;;;;11.73;9.80;;;18.40;42.60;;;;;;5032738;28;20705;-50
2023/04/23 05:23:05;;;;;;;10.50;9.40;;;18.50;42.50;;;;;;5032320;28;20216;-49
2023/04/23 05:25:33;;;;;;;10.50;9.30;;;18.50;42.40;;;;;;5032777;28;20174;-49
2023/04/23 05:27:59;;;;;;;11.95;10.35;;;18.60;42.20;;;;;;5032753;28;20178;-49
2023/04/23 05:30:24;;;;;;;13.07;9.43;;;18.70;42.20;;;;;;5032452;28;20212;-50
2023/04/23 05:32:50;;;;;;;11.30;10.20;;;18.80;42.20;;;;;;5032304;28;20174;-50
2023/04/23 05:35:16;;;;;;;10.83;9.77;;;18.90;42.00;;;;;;5032492;28;20225;-49
2023/04/23 05:37:41;;;;;;;11.67;9.63;;;19.00;41.90;;;;;;5032583;28;20215;-49
2023/04/23 05:40:08;;;;;;;8.23;7.50;;;19.00;41.70;;;;;;5032457;28;20228;-49
2023/04/23 05:42:35;;;;;;;8.23;7.22;;;19.10;39.80;;;;;;5032178;28;20743;-49
2023/04/23 05:45:01;;;;;;;8.70;6.80;;;19.20;39.60;;;;;;5032332;28;20186;-50
2023/04/23 05:47:28;;;;;;;8.30;7.38;;;19.20;39.50;;;;;;5032089;28;20182;-49
2023/04/23 05:49:56;;;;;;;7.40;6.35;;;19.30;39.10;;;;;;5032507;28;20214;-49
2023/04/23 05:52:22;;;;;;;10.50;7.45;;;19.40;38.90;;;;;;5032136;28;20223;-50
2023/04/23 05:54:48;;;;;;;9.25;6.97;;;19.40;38.80;;;;;;5032217;28;20216;-50
2023/04/23 05:57:14;;;;;;;7.67;6.97;;;19.40;38.10;;;;;;5032248;28;20178;-49
2023/04/23 05:59:40;;;;;;;9.10;7.37;;;19.50;37.80;;;;;;5031899;28;20210;-49
2023/04/23 06:02:07;;;;;;;7.80;6.33;;;19.50;37.80;;;;;;5031848;28;20178;-49
2023/04/23 06:04:32;;;;;;;9.20;7.22;;;19.60;38.00;;;;;;5032248;28;20444;-49
2023/04/23 06:06:58;;;;;;;7.17;6.40;;;19.70;38.10;;;;;;5032205;28;20201;-49
2023/04/23 06:09:24;;;;;;;8.67;6.90;;;19.80;37.80;;;;;;5032035;28;20198;-49
2023/04/23 06:11:52;;;;;;;7.03;6.37;;;20.00;37.50;;;;;;5032151;28;20178;-50
2023/04/23 06:14:17;;;;;;;8.15;6.43;;;20.10;37.50;;;;;;5032083;28;20423;-50
2023/04/23 06:16:43;;;;;;;9.07;7.40;;;20.20;37.30;;;;;;5032149;28;20629;-49
2023/04/23 06:19:09;;;;;;;7.70;6.73;;;20.40;37.10;;;;;;5032231;28;20281;-49
2023/04/23 06:21:35;;;;;;;7.80;6.73;;;20.50;37.10;;;;;;5031963;28;20665;-50
2023/04/23 06:24:00;;;;;;;10.20;6.90;;;20.60;36.40;;;;;;5031956;28;20253;-50
2023/04/23 06:26:26;;;;;;;10.27;7.57;;;20.70;35.90;;;;;;5031835;28;20412;-49
2023/04/23 06:28:52;;;;;;;8.67;6.70;;;20.90;36.10;;;;;;5031712;28;20200;-50
2023/04/23 06:31:18;;;;;;;6.20;5.60;;;21.00;35.60;;;;;;5031921;28;20249;-49
2023/04/23 06:33:43;;;;;;;6.55;5.88;;;21.00;35.50;;;;;;5031802;28;20180;-48
2023/04/23 06:36:09;;;;;;;8.13;6.77;;;21.10;35.70;;;;;;5033443;28;20213;-49
2023/04/23 06:38:36;;;;;;;14.57;6.87;;;21.20;35.80;;;;;;5035751;28;20281;-50
2023/04/23 06:41:03;;;;;;;9.50;6.82;;;21.30;35.40;;;;;;5036041;28;20415;-49
2023/04/23 06:43:29;;;;;;;11.43;6.43;;;21.40;35.30;;;;;;5035248;28;20542;-50
2023/04/23 06:45:55;;;;;;;9.15;6.43;;;21.40;34.70;;;;;;5035619;28;20230;-50
2023/04/23 06:48:21;;;;;;;6.70;5.50;;;21.40;34.80;;;;;;5035473;28;20233;-51
2023/04/23 06:50:47;;;;;;;6.27;5.33;;;21.50;35.10;;;;;;5035574;28;20197;-50
2023/04/23 06:53:14;;;;;;;6.50;5.90;;;21.50;35.50;;;;;;5035223;28;20496;-50
2023/04/23 06:55:40;;;;;;;9.90;5.38;;;21.60;35.20;;;;;;5035396;28;20758;-50
2023/04/23 06:58:06;;;;;;;9.47;5.70;;;21.60;34.30;;;;;;5035524;28;20253;-49
2023/04/23 07:00:32;;;;;;;5.27;4.70;;;21.60;34.60;;;;;;5035563;28;20193;-49
2023/04/23 07:02:58;;;;;;;4.28;3.38;;;21.50;34.70;;;;;;5035368;28;20596;-50
2023/04/23 07:05:24;;;;;;;4.80;2.90;;;21.40;34.50;;;;;;5035250;28;20183;-50
2023/04/23 07:07:49;;;;;;;4.30;3.20;;;21.30;34.40;;;;;;5035393;28;20180;-50
2023/04/23 07:10:16;;;;;;;3.37;3.07;;;21.20;34.60;;;;;;5035175;28;20937;-50
2023/04/23 07:12:41;;;;;;;3.65;3.35;;;21.10;34.60;;;;;;5034749;28;20646;-50
2023/04/23 07:15:07;;;;;;;6.10;3.20;;;21.00;35.10;;;;;;5035009;28;20248;-49
2023/04/23 07:17:33;;;;;;;3.90;3.35;;;21.00;35.10;;;;;;5035145;28;20249;-50
2023/04/23 07:20:02;;;;;;;3.20;2.70;;;21.00;35.40;;;;;;5035009;28;20190;-49
2023/04/23 07:22:28;;;;;;;5.10;3.45;;;21.00;34.90;;;;;;5035006;28;20185;-49
2023/04/23 07:24:54;;;;;;;3.13;2.83;;;20.90;35.00;;;;;;5035001;28;20227;-50
2023/04/23 07:27:19;;;;;;;4.07;2.97;;;20.80;35.20;;;;;;5034955;28;20176;-50
2023/04/23 07:29:45;;;;;;;3.80;2.90;;;20.70;35.80;;;;;;5035004;28;20744;-49
2023/04/23 07:32:11;;;;;;;4.27;2.53;;;20.90;35.10;;;;;;5034648;28;20177;-49
2023/04/23 07:34:37;;;;;;;3.90;3.20;;;21.00;35.80;;;;;;5034907;28;20227;-50
2023/04/23 07:37:03;;;;;;;8.70;3.30;;;21.10;35.90;;;;;;5034797;28;20530;-49
2023/04/23 07:39:29;;;;;;;5.63;2.30;;;21.10;35.60;;;;;;5034574;28;20201;-50
2023/04/23 07:41:55;;;;;;;4.03;2.67;;;21.10;35.80;;;;;;5034202;28;20174;-50
2023/04/23 07:44:21;;;;;;;4.05;2.80;;;21.00;35.70;;;;;;5034513;28;20646;-50
2023/04/23 07:46:47;;;;;;;4.63;3.30;;;21.00;35.80;;;;;;5034325;28;20228;-50
2023/04/23 07:49:13;;;;;;;5.50;3.33;;;20.90;35.80;;;;;;5016596;28;20496;-50
2023/04/23 07:51:40;;;;;;;4.60;3.40;;;21.00;35.70;;;;;;5034313;28;20665;-49
2023/04/23 07:54:06;;;;;;;7.47;4.13;;;20.80;35.90;;;;;;5034278;28;20256;-49
2023/04/23 07:56:32;;;;;;;3.80;3.10;;;20.80;36.00;;;;;;5034436;28;20209;-50
2023/04/23 07:58:58;;;;;;;2.70;2.40;;;20.90;36.20;;;;;;5034528;28;20284;-49
2023/04/23 08:01:25;;;;;;;5.80;2.65;;;20.90;36.60;;;;;;5034390;28;20174;-49
2023/04/23 08:03:51;;;;;;;6.60;4.00;;;20.90;36.60;;;;;;5034093;28;20188;-50
2023/04/23 08:06:17;;;;;;;3.80;3.30;;;20.90;36.80;;;;;;5034177;28;20178;-50
2023/04/23 08:08:43;;;;;;;9.83;3.10;;;21.00;36.90;;;;;;5034061;28;20244;-50
2023/04/23 08:11:10;;;;;;;5.57;3.53;;;21.10;36.90;;;;;;5034143;28;20415;-50
2023/04/23 08:13:36;;;;;;;4.43;3.53;;;21.30;37.30;;;;;;5034033;28;20523;-50
2023/04/23 08:16:01;;;;;;;3.03;2.58;;;21.60;37.70;;;;;;5033853;28;20673;-50
2023/04/23 08:18:27;;;;;;;3.27;1.87;;;22.00;36.60;;;;;;5033861;28;20262;-50
2023/04/23 08:20:55;;;;;;;2.87;2.30;;;22.10;35.20;;;;;;5034156;28;20223;-50
2023/04/23 08:23:21;;;;;;;2.60;1.90;;;22.10;35.50;;;;;;5033541;28;20405;-49
2023/04/23 08:25:46;;;;;;;1.93;1.57;;;22.10;35.50;;;;;;5033606;28;20474;-50
2023/04/23 08:28:12;;;;;;;2.30;1.87;;;22.10;35.40;;;;;;5015949;28;20444;-50
2023/04/23 08:30:38;;;;;;;4.83;2.77;;;22.10;35.70;;;;;;5033961;28;20201;-49
2023/04/23 08:33:03;;;;;;;3.83;2.17;;;22.30;35.80;;;;;;5033449;28;20232;-50
2023/04/23 08:35:29;;;;;;;4.53;4.13;;;22.50;35.00;;;;;;5033561;28;20204;-50
2023/04/23 08:37:55;;;;;;;3.33;3.03;;;22.60;35.10;;;;;;5033522;28;20174;-49
2023/04/23 08:40:21;;;;;;;3.60;2.30;;;22.70;34.40;;;;;;5033277;28;20198;-49
2023/04/23 08:42:57;;;;;;;3.37;3.07;;;22.70;34.90;;;;;;5033306;28;20416;-50
2023/04/23 08:45:25;;;;;;;3.00;2.30;;;22.90;35.00;;;;;;5033609;28;20821;-49
2023/04/23 08:47:50;;;;;;;3.47;2.17;;;23.00;34.90;;;;;;5033451;28;20461;-50
2023/04/23 08:50:18;;;;;;;3.70;2.30;;;22.90;34.20;;;;;;5033198;28;20472;-50
2023/04/23 08:52:52;;;;;;;2.50;2.13;;;22.80;34.40;;;;;;5033181;28;20259;-50
2023/04/23 08:55:20;;;;;;;2.03;1.60;;;22.70;33.50;;;;;;5033308;28;20547;-50
2023/04/23 08:57:48;;;;;;;4.80;1.70;;;22.50;34.00;;;;;;5033044;28;20966;-50
2023/04/23 09:00:17;;;;;;;3.23;2.17;;;22.30;34.10;;;;;;5032683;28;20494;-50
2023/04/23 09:02:45;;;;;;;2.60;2.30;;;22.20;34.50;;;;;;5032754;28;20450;-50
2023/04/23 09:05:11;;;;;;;3.03;2.73;;;22.10;34.70;;;;;;5032927;28;20491;-50
2023/04/23 09:07:37;;;;;;;2.65;1.75;;;22.00;35.10;;;;;;5033199;28;20512;-50
2023/04/23 09:10:05;;;;;;;2.80;1.80;;;22.00;35.30;;;;;;5033193;28;20202;-50
2023/04/23 09:12:35;;;;;;;5.77;4.50;;;22.00;35.10;;;;;;5032804;28;20840;-50
2023/04/23 09:15:03;;;;;;;2.30;1.93;;;22.00;35.30;;;;;;5032958;28;20870;-50
2023/04/23 09:17:29;;;;;;;4.80;2.60;;;22.00;35.30;;;;;;5032678;28;20413;-50
2023/04/23 09:19:55;;;;;;;2.17;1.60;;;22.00;35.30;;;;;;5032461;28;20425;-50
2023/04/23 09:22:39;;;;;;;2.70;1.97;;;22.00;35.50;;;;;;5032701;28;20458;-49
2023/04/23 09:25:07;;;;;;;2.80;1.90;;;22.20;35.30;;;;;;5032699;28;20190;-50
2023/04/23 09:27:33;;;;;;;5.25;3.15;;;22.10;35.20;;;;;;5032897;28;20416;-49
2023/04/23 09:30:03;;;;;;;2.30;1.40;;;22.10;34.80;;;;;;5014798;28;20284;-50
2023/04/23 09:32:34;;;;;;;3.03;1.60;;;22.20;35.30;;;;;;5032309;28;20646;-50
2023/04/23 09:35:05;;;;;;;3.60;1.63;;;22.30;35.80;;;;;;5032397;28;20483;-50
2023/04/23 09:37:32;;;;;;;2.00;1.33;;;22.30;34.90;;;;;;5032590;28;20481;-50
2023/04/23 09:39:59;;;;;;;1.73;1.40;;;22.30;34.80;;;;;;5032277;28;20425;-50
2023/04/23 09:42:27;;;;;;;2.15;1.52;;;22.40;34.50;;;;;;5032157;28;20408;-51
2023/04/23 09:44:58;;;;;;;2.37;1.90;;;22.40;34.80;;;;;;5032209;28;20178;-49
2023/04/23 09:47:24;;;;;;;6.10;2.03;;;22.50;33.40;;;;;;5032158;28;20397;-50
2023/04/23 09:49:50;;;;;;;2.13;1.50;;;22.50;33.50;;;;;;5032201;28;20432;-50
2023/04/23 09:52:17;;;;;;;1.75;1.20;;;22.30;33.50;;;;;;5032319;28;20405;-49
2023/04/23 09:54:45;;;;;;;2.00;1.30;;;22.30;33.70;;;;;;5031996;28;20185;-49
2023/04/23 09:57:11;;;;;;;1.40;1.00;;;22.30;34.00;;;;;;5032086;28;20552;-50
2023/04/23 09:59:37;;;;;;;3.53;2.30;;;22.30;33.90;;;;;;5032052;28;20490;-50
2023/04/23 10:02:05;;;;;;;1.50;1.20;;;22.30;33.80;;;;;;5032172;28;20405;-50
2023/04/23 10:04:31;;;;;;;1.50;0.90;;;22.10;33.80;;;;;;5032046;28;20664;-49
2023/04/23 10:07:03;;;;;;;8.20;6.13;;;22.00;33.50;;;;;;5032408;28;20251;-50
2023/04/23 10:09:29;;;;;;;69.70;52.87;;;21.90;33.80;;;;;;5031899;28;20782;-49
2023/04/23 10:12:01;;;;;;;4.93;4.43;;;22.00;34.30;;;;;;5031762;28;20475;-50
2023/04/23 10:14:28;;;;;;;2.55;1.83;;;22.00;33.90;;;;;;5032082;28;20419;-50
2023/04/23 10:17:02;;;;;;;229.93;165.87;;;21.90;34.10;;;;;;5031864;28;20226;-50
2023/04/23 10:19:29;;;;;;;17.57;12.40;;;22.00;33.50;;;;;;5031895;28;20438;-50
2023/04/23 10:21:56;;;;;;;5.10;1.60;;;22.10;33.90;;;;;;5031549;28;20913;-51
2023/04/23 10:24:27;;;;;;;1.70;1.27;;;22.20;33.50;;;;;;5031665;28;20966;-50
2023/04/23 10:26:56;;;;;;;2.70;2.07;;;22.30;33.30;;;;;;5032129;28;20409;-51
2023/04/23 10:29:28;;;;;;;2.87;1.57;;;22.30;32.20;;;;;;5031740;28;20428;-50
2023/04/23 10:31:55;;;;;;;1.40;1.00;;;22.30;32.70;;;;;;5031654;28;20409;-50
2023/04/23 10:34:24;;;;;;;1.93;1.30;;;22.30;32.90;;;;;;5031789;28;20413;-50
2023/04/23 10:36:51;;;;;;;2.27;1.93;;;22.30;32.70;;;;;;5031614;28;20452;-50
2023/04/23 10:39:18;;;;;;;2.20;1.77;;;22.30;32.50;;;;;;5031592;28;20428;-50
2023/04/23 10:41:45;;;;;;;1.40;1.10;;;22.20;32.80;;;;;;5031669;28;20405;-50
2023/04/23 10:44:13;;;;;;;1.83;1.43;;;22.00;32.70;;;;;;5031870;28;20458;-51
2023/04/23 10:46:48;;;;;;;1.67;1.30;;;22.00;33.00;;;;;;5031689;28;20747;-50
2023/04/23 10:49:15;;;;;;;1.73;1.40;;;22.10;33.40;;;;;;5031437;28;20449;-50
2023/04/23 10:51:46;;;;;;;3.43;1.40;;;22.20;33.80;;;;;;5031746;28;20901;-50
2023/04/23 10:54:18;;;;;;;1.80;1.27;;;22.30;34.10;;;;;;5031525;28;20878;-50
2023/04/23 10:56:44;;;;;;;3.90;1.63;;;22.30;33.00;;;;;;5031400;28;21014;-50
2023/04/23 10:59:19;;;;;;;3.90;1.50;;;22.40;33.70;;;;;;5031566;28;20448;-50
2023/04/23 11:01:50;;;;;;;2.33;1.20;;;22.60;33.70;;;;;;5031634;28;20769;-50
2023/04/23 11:04:20;;;;;;;2.10;1.30;;;22.70;33.00;;;;;;5031486;28;20454;-50
2023/04/23 11:06:46;;;;;;;4.85;0.95;;;22.90;33.00;;;;;;5031483;28;20501;-50
2023/04/23 11:09:31;;;;;;;1.90;1.40;;;23.00;32.70;;;;;;5031362;28;20689;-50
2023/04/23 11:11:58;;;;;;;1.57;1.37;;;23.00;32.70;;;;;;5031196;28;20250;-50
2023/04/23 11:14:40;;;;;;;3.83;3.43;;;22.90;32.70;;;;;;5031526;28;20416;-50
2023/04/23 11:17:05;;;;;;;2.37;1.80;;;22.90;34.80;;;;;;5031243;28;20412;-50
2023/04/23 11:19:38;;;;;;;4.47;1.80;;;22.80;35.00;;;;;;5031326;28;20515;-50
2023/04/23 11:22:07;;;;;;;1.70;1.30;;;22.90;35.40;;;;;;5032285;28;20572;-50
2023/04/23 11:24:41;;;;;;;1.90;1.60;;;22.90;35.70;;;;;;5035195;28;20412;-50
2023/04/23 11:27:11;;;;;;;2.23;1.73;;;23.00;35.30;;;;;;5035212;28;20426;-50
2023/04/23 11:29:39;;;;;;;3.50;1.93;;;22.90;35.10;;;;;;5035068;28;20420;-50
2023/04/23 11:32:09;;;;;;;15.23;12.13;;;23.00;35.10;;;;;;5034812;28;20888;-51
2023/04/23 11:34:36;;;;;;;6.23;1.93;;;23.00;35.20;;;;;;5034922;28;20384;-50
2023/04/23 11:37:03;;;;;;;4.73;1.53;;;23.20;35.60;;;;;;5034649;28;20547;-50
2023/04/23 11:39:29;;;;;;;2.20;1.40;;;23.20;35.60;;;;;;5034445;28;20928;-50
2023/04/23 11:41:56;;;;;;;2.43;1.50;;;23.20;35.00;;;;;;5034339;28;20411;-51
2023/04/23 11:44:22;;;;;;;1.57;1.20;;;23.30;35.50;;;;;;5034843;28;20591;-50
2023/04/23 11:46:48;;;;;;;3.87;2.07;;;23.50;35.60;;;;;;5034781;28;20432;-50
2023/04/23 11:49:19;;;;;;;2.23;1.40;;;23.70;35.60;;;;;;5034270;28;20292;-49
2023/04/23 11:51:45;;;;;;;1.53;1.40;;;23.80;34.50;;;;;;5034211;28;20933;-50
2023/04/23 11:54:13;;;;;;;3.17;1.03;;;24.00;33.10;;;;;;5034451;28;20436;-50
2023/04/23 11:56:39;;;;;;;2.23;1.30;;;24.20;33.50;;;;;;5034441;28;20507;-50
2023/04/23 11:59:05;;;;;;;1.70;1.20;;;24.30;32.30;;;;;;5033985;28;20879;-51
2023/04/23 12:01:44;;;;;;;1.87;1.40;;;24.20;33.00;;;;;;5034226;28;20967;-50
2023/04/23 12:04:19;;;;;;;2.30;1.70;;;24.20;32.70;;;;;;5034060;28;20812;-50
2023/04/23 12:06:46;;;;;;;1.90;1.70;;;24.00;33.10;;;;;;5034005;28;20416;-50
2023/04/23 12:09:13;;;;;;;2.10;1.60;;;23.90;32.80;;;;;;5034197;28;20443;-50
2023/04/23 12:11:40;;;;;;;1.80;1.37;;;23.80;33.50;;;;;;5034125;28;20401;-50
2023/04/23 12:14:07;;;;;;;6.00;5.60;;;23.80;33.00;;;;;;5033836;28;20451;-50
2023/04/23 12:16:41;;;;;;;2.90;1.60;;;23.70;33.00;;;;;;5033754;28;20464;-50
2023/04/23 12:19:27;;;;;;;1.63;1.30;;;23.50;33.00;;;;;;5033709;28;20947;-50
2023/04/23 12:21:56;;;;;;;1.67;1.20;;;23.30;32.90;;;;;;5033739;28;20412;-50
2023/04/23 12:24:23;;;;;;;2.80;1.50;;;23.10;32.40;;;;;;5034058;28;20405;-50
2023/04/23 12:26:54;;;;;;;1.67;1.47;;;22.80;33.10;;;;;;5033895;28;20459;-50
2023/04/23 12:29:25;;;;;;;1.70;1.30;;;22.70;33.60;;;;;;5033893;28;20437;-50
2023/04/23 12:31:52;;;;;;;2.37;1.63;;;22.70;33.60;;;;;;5033775;28;20407;-50
2023/04/23 12:34:19;;;;;;;3.80;1.87;;;22.70;34.20;;;;;;5032671;28;20404;-50
2023/04/23 12:36:50;;;;;;;1.60;1.50;;;22.60;34.50;;;;;;5033395;28;20452;-50